| time (UTC) | temp C | wind direction | speed KPH | gust KPH | rain 1hr cm | rain 24hr cm | rain mn cm | humidity % | barometer mb |
| 20260503180057 | 17 | 174 | 3.2 | 9.7 | 0.00 | 0.00 | 0.00 | 70 | 1013.6 |
| 20260503174551 | 16 | 257 | 8.0 | 11.3 | 0.00 | 0.00 | 0.00 | 72 | 1013.7 |
| 20260503173109 | 16 | 260 | 4.8 | 8.0 | 0.00 | 0.00 | 0.00 | 78 | 1013.9 |
| 20260503171551 | 16 | 241 | 4.8 | 8.0 | 0.00 | 0.00 | 0.00 | 75 | 1014.0 |
| 20260503100109 | 9 | 42 | 1.6 | 1.6 | 0.00 | 0.00 | 0.00 | 95 | 1014.2 |
| 20260503081549 | 10 | 11 | 0.0 | 0.0 | 0.00 | 0.00 | 0.00 | 92 | 1014.2 |
| 20260503071546 | 11 | 9 | 1.6 | 1.6 | 0.00 | 0.00 | 0.00 | 90 | 1014.1 |
| 20260503054540 | 12 | 359 | 0.0 | 0.0 | 0.00 | 0.00 | 0.00 | 87 | 1013.8 |
| 20260503053034 | 12 | 324 | 0.0 | 1.6 | 0.00 | 0.00 | 0.00 | 88 | 1013.7 |
| 20260503051533 | 12 | 321 | 0.0 | 1.6 | 0.00 | 0.00 | 0.00 | 87 | 1013.9 |
| 20260503050034 | 13 | 321 | 0.0 | 1.6 | 0.00 | 0.00 | 0.00 | 87 | 1013.9 |
| 20260503044535 | 13 | 321 | 0.0 | 0.0 | 0.00 | 0.00 | 0.00 | 86 | 1013.7 |
| 20260503043032 | 13 | 321 | 0.0 | 0.0 | 0.00 | 0.00 | 0.00 | 86 | 1013.7 |
| 20260503041531 | 14 | 321 | 0.0 | 0.0 | 0.00 | 0.00 | 0.00 | 85 | 1013.5 |
| 20260503040030 | 15 | 321 | 0.0 | 0.0 | 0.00 | 0.00 | 0.00 | 83 | 1013.4 |
| 20260503034530 | 15 | 321 | 0.0 | 1.6 | 0.00 | 0.00 | 0.00 | 83 | 1013.3 |
| 20260503033041 | 16 | 240 | 0.0 | 0.0 | 0.00 | 0.00 | 0.00 | 80 | 1013.0 |
| 20260503031529 | 18 | 240 | 0.0 | 3.2 | 0.00 | 0.00 | 0.00 | 75 | 1013.0 |
| 20260503030029 | 21 | 354 | 0.0 | 0.0 | 0.00 | 0.00 | 0.00 | 68 | 1012.9 |
| 20260503024528 | 21 | 354 | 1.6 | 3.2 | 0.00 | 0.00 | 0.00 | 62 | 1012.9 |
| 20260503023027 | 21 | 259 | 0.0 | 3.2 | 0.00 | 0.00 | 0.00 | 65 | 1012.9 |
| 20260503021528 | 23 | 13 | 1.6 | 3.2 | 0.00 | 0.00 | 0.00 | 56 | 1012.9 |
| 20260503020024 | 24 | 12 | 0.0 | 1.6 | 0.00 | 0.00 | 0.00 | 51 | 1013.0 |
| 20260503014531 | 22 | 12 | 0.0 | 1.6 | 0.00 | 0.00 | 0.00 | 59 | 1013.2 |
| 20260503013015 | 20 | 298 | 1.6 | 6.4 | 0.00 | 0.00 | 0.00 | 67 | 1013.2 |
| 20260503011513 | 20 | 307 | 3.2 | 8.0 | 0.00 | 0.00 | 0.00 | 65 | 1013.4 |
| 20260503010016 | 19 | 278 | 3.2 | 8.0 | 0.00 | 0.00 | 0.00 | 66 | 1013.4 |
| 20260503004522 | 19 | 294 | 6.4 | 9.7 | 0.00 | 0.00 | 0.00 | 64 | 1013.5 |
| 20260503003011 | 20 | 290 | 8.0 | 12.9 | 0.00 | 0.00 | 0.00 | 62 | 1013.5 |
| 20260503001507 | 20 | 287 | 9.7 | 14.5 | 0.00 | 0.00 | 0.00 | 63 | 1013.7 |
| 20260503000004 | 20 | 291 | 8.0 | 16.1 | 0.00 | 0.00 | 0.00 | 63 | 1013.6 |
| 20260502234503 | 19 | 304 | 6.4 | 14.5 | 0.00 | 0.00 | 0.00 | 65 | 1013.9 |
| 20260502233104 | 19 | 302 | 12.9 | 19.3 | 0.00 | 0.00 | 0.00 | 66 | 1013.9 |
| 20260502231559 | 19 | 290 | 8.0 | 14.5 | 0.00 | 0.00 | 0.00 | 66 | 1014.0 |
| 20260502230055 | 19 | 303 | 11.3 | 17.7 | 0.00 | 0.00 | 0.00 | 69 | 1014.1 |
| 20260502224607 | 18 | 290 | 8.0 | 14.5 | 0.00 | 0.00 | 0.00 | 72 | 1014.3 |
| 20260502223054 | 18 | 280 | 12.9 | 19.3 | 0.00 | 0.00 | 0.00 | 69 | 1014.5 |
| 20260502221550 | 18 | 287 | 9.7 | 16.1 | 0.00 | 0.00 | 0.00 | 69 | 1014.6 |
| 20260502220046 | 18 | 277 | 9.7 | 17.7 | 0.00 | 0.00 | 0.00 | 70 | 1014.8 |
| 20260502214544 | 18 | 314 | 8.0 | 17.7 | 0.00 | 0.00 | 0.00 | 71 | 1015.0 |
| 20260502213044 | 17 | 277 | 9.7 | 22.5 | 0.00 | 0.00 | 0.00 | 71 | 1015.2 |
| 20260502211548 | 17 | 294 | 11.3 | 19.3 | 0.00 | 0.00 | 0.00 | 74 | 1015.4 |
| 20260502210041 | 17 | 295 | 11.3 | 20.9 | 0.00 | 0.00 | 0.00 | 78 | 1015.5 |
| 20260502204541 | 17 | 314 | 12.9 | 19.3 | 0.00 | 0.00 | 0.00 | 78 | 1015.6 |
| 20260502203040 | 17 | 288 | 12.9 | 22.5 | 0.00 | 0.00 | 0.00 | 78 | 1015.7 |
| 20260502201539 | 16 | 275 | 12.9 | 19.3 | 0.00 | 0.00 | 0.00 | 78 | 1015.8 |
| 20260502200038 | 16 | 288 | 11.3 | 19.3 | 0.00 | 0.00 | 0.00 | 78 | 1016.1 |
| 20260502194538 | 17 | 301 | 12.9 | 17.7 | 0.00 | 0.00 | 0.00 | 76 | 1016.1 |
| 20260502193036 | 18 | 262 | 4.8 | 9.7 | 0.00 | 0.00 | 0.00 | 68 | 1016.0 |
| 20260502191533 | 17 | 250 | 3.2 | 8.0 | 0.00 | 0.00 | 0.00 | 74 | 1016.2 |
| 20260502190038 | 17 | 236 | 3.2 | 8.0 | 0.00 | 0.00 | 0.00 | 78 | 1016.3 |
| 20260502184545 | 16 | 236 | 4.8 | 9.7 | 0.00 | 0.00 | 0.00 | 79 | 1016.3 |
| 20260502183045 | 16 | 204 | 1.6 | 6.4 | 0.00 | 0.00 | 0.00 | 80 | 1016.5 |
| 20260502181535 | 15 | 238 | 4.8 | 8.0 | 0.00 | 0.00 | 0.00 | 83 | 1016.6 |